Snoqualmie River: Carnation station

back to: Snoqualmie river
Carnation station Summary - (NOAA Hydrograph: CRNW1)
flood stage: 54.0 ft
Latest reading:
Wed01/27 08:15 am 46.47 ft 2340 cfs (steady)
Past 24hr max:
Tue01/26 08:15 am 46.56 ft 2470 cfs
Forecasted crests: (published Wed 01/27/21 07:37 am)
Tue02/02 10:00 am 47.16 ft 3662 cfs

Carnation station Details

Latest Readings

Last 100 Readings:
Wed01/27 08:15 am 46.47 ft 2340 cfs
Wed01/27 08:00 am 46.47 ft 2340 cfs
Wed01/27 07:45 am 46.48 ft 2340 cfs
Wed01/27 07:30 am 46.48 ft 2340 cfs
Wed01/27 07:15 am 46.47 ft 2340 cfs
Wed01/27 07:00 am 46.48 ft 2340 cfs
Wed01/27 06:45 am 46.48 ft 2340 cfs
Wed01/27 06:30 am 46.48 ft 2350 cfs
Wed01/27 06:15 am 46.48 ft 2340 cfs
Wed01/27 06:00 am 46.48 ft 2340 cfs
Wed01/27 05:45 am 46.48 ft 2350 cfs
Wed01/27 05:30 am 46.48 ft 2350 cfs
Wed01/27 05:15 am 46.49 ft 2350 cfs
Wed01/27 05:00 am 46.48 ft 2350 cfs
Wed01/27 04:45 am 46.48 ft 2350 cfs
Wed01/27 04:30 am 46.48 ft 2350 cfs
Wed01/27 04:15 am 46.48 ft 2350 cfs
Wed01/27 04:00 am 46.49 ft 2350 cfs
Wed01/27 03:45 am 46.48 ft 2350 cfs
Wed01/27 03:30 am 46.49 ft 2370 cfs
Wed01/27 03:15 am 46.49 ft 2370 cfs
Wed01/27 03:00 am 46.49 ft 2370 cfs
Wed01/27 02:45 am 46.49 ft 2370 cfs
Wed01/27 02:30 am 46.49 ft 2370 cfs
Wed01/27 02:15 am 46.48 ft 2370 cfs
Wed01/27 02:00 am 46.49 ft 2370 cfs
Wed01/27 01:45 am 46.49 ft 2370 cfs
Wed01/27 01:30 am 46.49 ft 2390 cfs
Wed01/27 01:15 am 46.49 ft 2370 cfs
Wed01/27 01:00 am 46.49 ft 2370 cfs
Wed01/27 12:45 am 46.49 ft 2390 cfs
Wed01/27 12:30 am 46.5 ft 2390 cfs
Wed01/27 12:15 am 46.5 ft 2400 cfs
Wed01/27 12:00 am 46.5 ft 2390 cfs
Tue01/26 11:45 pm 46.49 ft 2390 cfs
Tue01/26 11:30 pm 46.51 ft 2390 cfs
Tue01/26 11:15 pm 46.51 ft 2390 cfs
Tue01/26 11:00 pm 46.51 ft 2400 cfs
Tue01/26 10:45 pm 46.5 ft 2400 cfs
Tue01/26 10:30 pm 46.5 ft 2400 cfs
Tue01/26 10:15 pm 46.51 ft 2400 cfs
Tue01/26 10:00 pm 46.51 ft 2400 cfs
Tue01/26 09:45 pm 46.49 ft 2400 cfs
Tue01/26 09:30 pm 46.48 ft 2420 cfs
Tue01/26 09:15 pm 46.51 ft 2390 cfs
Tue01/26 09:00 pm 46.5 ft 2400 cfs
Tue01/26 08:45 pm 46.51 ft 2400 cfs
Tue01/26 08:30 pm 46.51 ft 2400 cfs
Tue01/26 08:15 pm 46.52 ft 2420 cfs
Tue01/26 08:00 pm 46.51 ft 2400 cfs
Tue01/26 07:45 pm 46.51 ft 2400 cfs
Tue01/26 07:30 pm 46.51 ft 2400 cfs
Tue01/26 07:15 pm 46.51 ft 2420 cfs
Tue01/26 07:00 pm 46.52 ft 2420 cfs
Tue01/26 06:45 pm 46.51 ft 2420 cfs
Tue01/26 06:30 pm 46.52 ft 2400 cfs
Tue01/26 06:15 pm 46.53 ft 2400 cfs
Tue01/26 06:00 pm 46.52 ft 2420 cfs
Tue01/26 05:45 pm 46.52 ft 2420 cfs
Tue01/26 05:30 pm 46.53 ft 2420 cfs
Tue01/26 05:15 pm 46.52 ft 2420 cfs
Tue01/26 05:00 pm 46.53 ft 2440 cfs
Tue01/26 04:45 pm 46.53 ft 2420 cfs
Tue01/26 04:30 pm 46.53 ft 2440 cfs
Tue01/26 04:15 pm 46.53 ft 2440 cfs
Tue01/26 04:00 pm 46.52 ft 2440 cfs
Tue01/26 03:45 pm 46.53 ft 2440 cfs
Tue01/26 03:30 pm 46.52 ft 2440 cfs
Tue01/26 03:15 pm 46.53 ft 2440 cfs
Tue01/26 03:00 pm 46.53 ft 2440 cfs
Tue01/26 02:45 pm 46.53 ft 2440 cfs
Tue01/26 02:30 pm 46.53 ft 2450 cfs
Tue01/26 02:15 pm 46.52 ft 2440 cfs
Tue01/26 02:00 pm 46.52 ft 2450 cfs
Tue01/26 01:45 pm 46.53 ft 2440 cfs
Tue01/26 01:30 pm 46.54 ft 2450 cfs
Tue01/26 01:15 pm 46.54 ft 2450 cfs
Tue01/26 01:00 pm 46.52 ft 2450 cfs
Tue01/26 12:45 pm 46.54 ft 2450 cfs
Tue01/26 12:30 pm 46.55 ft 2450 cfs
Tue01/26 12:15 pm 46.54 ft 2450 cfs
Tue01/26 12:00 pm 46.55 ft 2450 cfs
Tue01/26 11:45 am 46.55 ft 2450 cfs
Tue01/26 11:30 am 46.55 ft 2450 cfs
Tue01/26 11:15 am 46.55 ft 2450 cfs
Tue01/26 11:00 am 46.55 ft 2450 cfs
Tue01/26 10:45 am 46.55 ft 2450 cfs
Tue01/26 10:30 am 46.55 ft 2470 cfs
Tue01/26 10:15 am 46.55 ft 2450 cfs
Tue01/26 10:00 am 46.55 ft 2470 cfs
Tue01/26 09:45 am 46.56 ft 2470 cfs
Tue01/26 09:30 am 46.55 ft 2470 cfs
Tue01/26 09:15 am 46.56 ft 2470 cfs
Tue01/26 09:00 am 46.56 ft 2470 cfs
Tue01/26 08:45 am 46.56 ft 2470 cfs
Tue01/26 08:30 am 46.55 ft 2470 cfs
Tue01/26 08:15 am 46.56 ft 2470 cfs
Tue01/26 08:00 am 46.57 ft 2470 cfs
Tue01/26 07:45 am 46.56 ft 2470 cfs
Tue01/26 07:30 am 46.56 ft 2470 cfs

Latest Forecasts

Currently Forecasted Readings:
Wed01/27 10:00 am 46.45 ft 2341 cfs
Wed01/27 04:00 pm 46.45 ft 2329 cfs
Wed01/27 10:00 pm 46.44 ft 2318 cfs
Thu01/28 04:00 am 46.41 ft 2277 cfs
Thu01/28 10:00 am 46.39 ft 2239 cfs
Thu01/28 04:00 pm 46.37 ft 2203 cfs
Thu01/28 10:00 pm 46.35 ft 2169 cfs
Fri01/29 04:00 am 46.33 ft 2141 cfs
Fri01/29 10:00 am 46.32 ft 2120 cfs
Fri01/29 04:00 pm 46.3 ft 2099 cfs
Fri01/29 10:00 pm 46.29 ft 2071 cfs
Sat01/30 04:00 am 46.27 ft 2038 cfs
Sat01/30 10:00 am 46.25 ft 2010 cfs
Sat01/30 04:00 pm 46.23 ft 1988 cfs
Sat01/30 10:00 pm 46.23 ft 1987 cfs
Sun01/31 04:00 am 46.26 ft 2027 cfs
Sun01/31 10:00 am 46.32 ft 2116 cfs
Sun01/31 04:00 pm 46.39 ft 2234 cfs
Sun01/31 10:00 pm 46.5 ft 2427 cfs
Mon02/01 04:00 am 46.69 ft 2744 cfs
Mon02/01 10:00 am 46.87 ft 3090 cfs
Mon02/01 04:00 pm 47.0 ft 3335 cfs
Mon02/01 10:00 pm 47.09 ft 3506 cfs
Tue02/02 04:00 am 47.16 ft 3641 cfs
Tue02/02 10:00 am 47.16 ft 3662 cfs
Tue02/02 04:00 pm 47.11 ft 3553 cfs
Tue02/02 10:00 pm 47.02 ft 3375 cfs
Wed02/03 04:00 am 46.93 ft 3203 cfs
Wed02/03 10:00 am 46.86 ft 3061 cfs
Wed02/03 04:00 pm 46.77 ft 2903 cfs
Wed02/03 10:00 pm 46.68 ft 2734 cfs
Thu02/04 04:00 am 46.59 ft 2582 cfs
Thu02/04 10:00 am 46.52 ft 2449 cfs
Thu02/04 04:00 pm 46.45 ft 2337 cfs
Thu02/04 10:00 pm 46.4 ft 2244 cfs
Fri02/05 04:00 am 46.35 ft 2166 cfs
Fri02/05 10:00 am 46.31 ft 2104 cfs
Fri02/05 04:00 pm 46.28 ft 2058 cfs
Fri02/05 10:00 pm 46.25 ft 2015 cfs
Sat02/06 04:00 am 46.23 ft 1973 cfs

Snoqualmie River flood gauge data supplied by the
National Weather Service Northwest River Forecast Center.

Sign up for Floodzilla alerts.